sensor_id;sensor_type;location;lat;lon;timestamp;P1;durP1;ratioP1;P2;durP2;ratioP2
84794;SDS011;75026;49.184;16.564;2024-03-23T00:54:27;6.07;;;3.92;;
84794;SDS011;75026;49.184;16.564;2024-03-23T00:59:28;5.90;;;3.83;;
84794;SDS011;75026;49.184;16.564;2024-03-23T01:04:29;8.80;;;4.13;;
84794;SDS011;75026;49.184;16.564;2024-03-23T01:09:30;7.05;;;4.15;;
84794;SDS011;75026;49.184;16.564;2024-03-23T01:14:30;7.22;;;4.10;;
84794;SDS011;75026;49.184;16.564;2024-03-23T01:19:31;8.82;;;4.00;;
84794;SDS011;75026;49.184;16.564;2024-03-23T01:24:32;6.53;;;3.97;;
84794;SDS011;75026;49.184;16.564;2024-03-23T01:29:33;6.18;;;3.85;;
84794;SDS011;75026;49.184;16.564;2024-03-23T01:34:34;6.10;;;3.90;;
84794;SDS011;75026;49.184;16.564;2024-03-23T01:39:35;6.32;;;3.55;;
84794;SDS011;75026;49.184;16.564;2024-03-23T01:44:35;6.13;;;3.58;;
84794;SDS011;75026;49.184;16.564;2024-03-23T01:49:36;6.63;;;4.18;;
84794;SDS011;75026;49.184;16.564;2024-03-23T01:54:37;8.45;;;3.92;;
84794;SDS011;75026;49.184;16.564;2024-03-23T01:59:39;5.97;;;3.47;;
84794;SDS011;75026;49.184;16.564;2024-03-23T02:04:40;5.45;;;3.50;;
84794;SDS011;75026;49.184;16.564;2024-03-23T02:09:41;5.57;;;3.53;;
84794;SDS011;75026;49.184;16.564;2024-03-23T02:14:42;7.10;;;3.67;;
84794;SDS011;75026;49.184;16.564;2024-03-23T02:19:42;6.78;;;3.40;;
84794;SDS011;75026;49.184;16.564;2024-03-23T02:24:43;6.60;;;3.70;;
84794;SDS011;75026;49.184;16.564;2024-03-23T02:29:44;9.25;;;3.83;;
84794;SDS011;75026;49.184;16.564;2024-03-23T02:34:45;6.18;;;3.80;;
84794;SDS011;75026;49.184;16.564;2024-03-23T02:39:46;8.25;;;3.92;;
84794;SDS011;75026;49.184;16.564;2024-03-23T02:44:46;7.82;;;3.20;;
84794;SDS011;75026;49.184;16.564;2024-03-23T02:49:47;5.55;;;3.30;;
84794;SDS011;75026;49.184;16.564;2024-03-23T02:54:48;5.03;;;3.45;;
84794;SDS011;75026;49.184;16.564;2024-03-23T02:59:49;6.03;;;3.38;;
84794;SDS011;75026;49.184;16.564;2024-03-23T03:04:50;5.03;;;3.08;;
84794;SDS011;75026;49.184;16.564;2024-03-23T03:09:51;5.50;;;3.55;;
84794;SDS011;75026;49.184;16.564;2024-03-23T03:14:51;5.70;;;3.30;;
84794;SDS011;75026;49.184;16.564;2024-03-23T03:19:52;5.70;;;3.40;;
84794;SDS011;75026;49.184;16.564;2024-03-23T03:24:56;5.68;;;3.08;;
84794;SDS011;75026;49.184;16.564;2024-03-23T03:29:57;5.85;;;3.55;;
84794;SDS011;75026;49.184;16.564;2024-03-23T03:34:58;5.78;;;3.28;;
84794;SDS011;75026;49.184;16.564;2024-03-23T03:39:59;4.57;;;3.28;;
84794;SDS011;75026;49.184;16.564;2024-03-23T03:44:59;4.90;;;3.17;;
84794;SDS011;75026;49.184;16.564;2024-03-23T03:50:00;6.22;;;3.75;;
84794;SDS011;75026;49.184;16.564;2024-03-23T03:55:01;5.43;;;3.33;;
84794;SDS011;75026;49.184;16.564;2024-03-23T04:00:03;5.10;;;3.30;;
84794;SDS011;75026;49.184;16.564;2024-03-23T04:05:05;5.38;;;3.25;;
84794;SDS011;75026;49.184;16.564;2024-03-23T04:10:06;4.85;;;2.97;;
84794;SDS011;75026;49.184;16.564;2024-03-23T04:15:08;4.95;;;3.35;;
84794;SDS011;75026;49.184;16.564;2024-03-23T04:20:09;5.38;;;3.40;;
84794;SDS011;75026;49.184;16.564;2024-03-23T04:25:11;5.85;;;3.40;;
84794;SDS011;75026;49.184;16.564;2024-03-23T04:30:12;5.30;;;3.20;;
84794;SDS011;75026;49.184;16.564;2024-03-23T04:35:13;4.25;;;2.80;;
84794;SDS011;75026;49.184;16.564;2024-03-23T04:40:14;4.82;;;3.20;;
84794;SDS011;75026;49.184;16.564;2024-03-23T04:45:15;5.30;;;3.42;;
84794;SDS011;75026;49.184;16.564;2024-03-23T04:50:16;5.80;;;3.30;;
84794;SDS011;75026;49.184;16.564;2024-03-23T04:55:17;4.85;;;3.00;;
84794;SDS011;75026;49.184;16.564;2024-03-23T05:00:18;5.72;;;3.50;;
84794;SDS011;75026;49.184;16.564;2024-03-23T05:05:19;4.80;;;3.38;;
84794;SDS011;75026;49.184;16.564;2024-03-23T05:10:20;5.13;;;3.33;;
84794;SDS011;75026;49.184;16.564;2024-03-23T05:15:20;5.75;;;2.90;;
84794;SDS011;75026;49.184;16.564;2024-03-23T05:20:21;5.22;;;3.28;;
84794;SDS011;75026;49.184;16.564;2024-03-23T05:25:22;4.55;;;2.95;;
84794;SDS011;75026;49.184;16.564;2024-03-23T05:30:23;6.32;;;3.40;;
84794;SDS011;75026;49.184;16.564;2024-03-23T05:35:24;5.80;;;3.33;;
84794;SDS011;75026;49.184;16.564;2024-03-23T05:40:28;4.55;;;2.97;;
84794;SDS011;75026;49.184;16.564;2024-03-23T05:45:28;4.75;;;3.10;;
84794;SDS011;75026;49.184;16.564;2024-03-23T05:50:29;4.93;;;3.13;;
84794;SDS011;75026;49.184;16.564;2024-03-23T05:55:30;4.25;;;2.75;;
84794;SDS011;75026;49.184;16.564;2024-03-23T06:00:32;4.32;;;3.00;;
84794;SDS011;75026;49.184;16.564;2024-03-23T06:05:33;5.72;;;3.20;;
84794;SDS011;75026;49.184;16.564;2024-03-23T06:10:34;4.55;;;3.13;;
84794;SDS011;75026;49.184;16.564;2024-03-23T06:15:35;4.05;;;2.88;;
84794;SDS011;75026;49.184;16.564;2024-03-23T06:20:38;4.80;;;2.88;;
84794;SDS011;75026;49.184;16.564;2024-03-23T06:25:39;4.97;;;3.05;;
84794;SDS011;75026;49.184;16.564;2024-03-23T06:30:40;4.20;;;2.58;;
84794;SDS011;75026;49.184;16.564;2024-03-23T06:35:41;5.28;;;2.95;;
84794;SDS011;75026;49.184;16.564;2024-03-23T06:40:42;4.75;;;3.10;;
84794;SDS011;75026;49.184;16.564;2024-03-23T06:45:42;4.72;;;2.90;;
84794;SDS011;75026;49.184;16.564;2024-03-23T06:50:43;4.25;;;2.80;;
84794;SDS011;75026;49.184;16.564;2024-03-23T06:55:49;4.05;;;2.92;;
84794;SDS011;75026;49.184;16.564;2024-03-23T07:00:51;3.88;;;2.63;;
84794;SDS011;75026;49.184;16.564;2024-03-23T07:05:52;4.38;;;2.75;;
84794;SDS011;75026;49.184;16.564;2024-03-23T07:10:53;4.95;;;3.20;;
84794;SDS011;75026;49.184;16.564;2024-03-23T07:15:54;5.07;;;2.72;;
84794;SDS011;75026;49.184;16.564;2024-03-23T07:20:56;3.85;;;2.67;;
84794;SDS011;75026;49.184;16.564;2024-03-23T07:25:58;4.00;;;2.67;;
84794;SDS011;75026;49.184;16.564;2024-03-23T07:31:06;4.55;;;2.90;;
84794;SDS011;75026;49.184;16.564;2024-03-23T07:36:09;4.60;;;2.70;;
84794;SDS011;75026;49.184;16.564;2024-03-23T07:41:11;3.70;;;2.50;;
84794;SDS011;75026;49.184;16.564;2024-03-23T07:46:15;4.30;;;2.92;;
84794;SDS011;75026;49.184;16.564;2024-03-23T07:51:17;4.05;;;2.60;;
84794;SDS011;75026;49.184;16.564;2024-03-23T07:56:19;4.40;;;2.97;;
84794;SDS011;75026;49.184;16.564;2024-03-23T08:01:20;3.83;;;2.50;;
84794;SDS011;75026;49.184;16.564;2024-03-23T08:06:21;4.30;;;2.83;;
84794;SDS011;75026;49.184;16.564;2024-03-23T08:11:23;4.43;;;2.60;;
84794;SDS011;75026;49.184;16.564;2024-03-23T08:16:24;8.48;;;3.10;;
84794;SDS011;75026;49.184;16.564;2024-03-23T08:21:25;10.30;;;3.10;;
84794;SDS011;75026;49.184;16.564;2024-03-23T08:26:26;8.75;;;4.30;;
84794;SDS011;75026;49.184;16.564;2024-03-23T08:31:27;7.25;;;3.95;;
84794;SDS011;75026;49.184;16.564;2024-03-23T08:36:28;9.45;;;3.60;;
84794;SDS011;75026;49.184;16.564;2024-03-23T08:41:31;7.00;;;3.45;;
84794;SDS011;75026;49.184;16.564;2024-03-23T08:46:32;7.95;;;3.92;;
84794;SDS011;75026;49.184;16.564;2024-03-23T08:51:32;5.35;;;3.33;;
84794;SDS011;75026;49.184;16.564;2024-03-23T08:56:33;4.40;;;3.00;;
84794;SDS011;75026;49.184;16.564;2024-03-23T09:01:34;5.90;;;3.10;;
84794;SDS011;75026;49.184;16.564;2024-03-23T09:06:35;5.82;;;3.50;;
84794;SDS011;75026;49.184;16.564;2024-03-23T09:11:37;5.35;;;3.47;;
84794;SDS011;75026;49.184;16.564;2024-03-23T09:16:38;9.30;;;4.00;;
84794;SDS011;75026;49.184;16.564;2024-03-23T09:21:39;6.05;;;3.95;;
84794;SDS011;75026;49.184;16.564;2024-03-23T09:26:40;8.20;;;4.53;;
84794;SDS011;75026;49.184;16.564;2024-03-23T09:31:40;7.85;;;4.85;;
84794;SDS011;75026;49.184;16.564;2024-03-23T09:36:41;9.93;;;4.70;;
84794;SDS011;75026;49.184;16.564;2024-03-23T09:47:12;9.13;;;5.15;;
84794;SDS011;75026;49.184;16.564;2024-03-23T09:52:14;8.90;;;5.30;;
84794;SDS011;75026;49.184;16.564;2024-03-23T09:57:17;8.32;;;5.18;;
84794;SDS011;75026;49.184;16.564;2024-03-23T10:02:18;8.20;;;5.30;;
84794;SDS011;75026;49.184;16.564;2024-03-23T10:07:21;8.30;;;4.97;;
84794;SDS011;75026;49.184;16.564;2024-03-23T10:12:23;9.20;;;5.20;;
84794;SDS011;75026;49.184;16.564;2024-03-23T10:17:31;14.35;;;4.93;;
84794;SDS011;75026;49.184;16.564;2024-03-23T10:22:31;8.77;;;4.47;;
84794;SDS011;75026;49.184;16.564;2024-03-23T10:27:38;10.27;;;4.55;;
84794;SDS011;75026;49.184;16.564;2024-03-23T10:32:39;7.68;;;4.35;;
84794;SDS011;75026;49.184;16.564;2024-03-23T10:37:40;7.45;;;3.88;;
84794;SDS011;75026;49.184;16.564;2024-03-23T10:42:41;6.07;;;3.92;;
84794;SDS011;75026;49.184;16.564;2024-03-23T10:47:43;7.45;;;4.25;;
84794;SDS011;75026;49.184;16.564;2024-03-23T10:52:46;5.72;;;3.70;;
84794;SDS011;75026;49.184;16.564;2024-03-23T10:57:49;5.57;;;3.50;;
84794;SDS011;75026;49.184;16.564;2024-03-23T11:08:38;4.72;;;3.60;;
84794;SDS011;75026;49.184;16.564;2024-03-23T11:13:42;5.40;;;3.33;;
84794;SDS011;75026;49.184;16.564;2024-03-23T11:18:43;14.35;;;3.78;;
84794;SDS011;75026;49.184;16.564;2024-03-23T11:23:44;14.15;;;6.40;;
84794;SDS011;75026;49.184;16.564;2024-03-23T11:28:45;14.65;;;6.93;;
84794;SDS011;75026;49.184;16.564;2024-03-23T11:33:47;20.45;;;7.28;;
84794;SDS011;75026;49.184;16.564;2024-03-23T11:38:47;26.75;;;10.85;;
84794;SDS011;75026;49.184;16.564;2024-03-23T11:43:48;23.75;;;13.00;;
84794;SDS011;75026;49.184;16.564;2024-03-23T11:48:49;22.75;;;12.55;;
84794;SDS011;75026;49.184;16.564;2024-03-23T11:53:52;27.02;;;10.52;;
84794;SDS011;75026;49.184;16.564;2024-03-23T11:58:52;26.15;;;10.70;;
84794;SDS011;75026;49.184;16.564;2024-03-23T12:03:54;27.52;;;10.52;;
84794;SDS011;75026;49.184;16.564;2024-03-23T12:09:04;19.27;;;9.93;;
84794;SDS011;75026;49.184;16.564;2024-03-23T12:14:06;20.90;;;10.07;;
84794;SDS011;75026;49.184;16.564;2024-03-23T12:19:07;20.30;;;10.48;;
84794;SDS011;75026;49.184;16.564;2024-03-23T12:24:08;20.55;;;10.07;;
84794;SDS011;75026;49.184;16.564;2024-03-23T12:29:09;19.67;;;9.40;;
84794;SDS011;75026;49.184;16.564;2024-03-23T12:34:10;17.42;;;9.15;;
84794;SDS011;75026;49.184;16.564;2024-03-23T12:39:11;22.77;;;9.25;;
84794;SDS011;75026;49.184;16.564;2024-03-23T12:44:12;17.25;;;8.57;;
84794;SDS011;75026;49.184;16.564;2024-03-23T12:49:54;17.17;;;8.32;;
84794;SDS011;75026;49.184;16.564;2024-03-23T12:54:56;20.83;;;8.82;;
84794;SDS011;75026;49.184;16.564;2024-03-23T12:59:57;16.13;;;8.40;;
84794;SDS011;75026;49.184;16.564;2024-03-23T13:04:58;18.02;;;8.15;;
84794;SDS011;75026;49.184;16.564;2024-03-23T13:09:59;16.77;;;7.72;;
84794;SDS011;75026;49.184;16.564;2024-03-23T13:15:00;11.10;;;6.57;;
84794;SDS011;75026;49.184;16.564;2024-03-23T13:20:01;11.85;;;5.97;;
84794;SDS011;75026;49.184;16.564;2024-03-23T13:25:04;11.93;;;5.88;;
84794;SDS011;75026;49.184;16.564;2024-03-23T13:30:05;11.50;;;5.53;;
84794;SDS011;75026;49.184;16.564;2024-03-23T13:35:07;11.27;;;5.00;;
84794;SDS011;75026;49.184;16.564;2024-03-23T13:40:08;14.63;;;5.97;;
84794;SDS011;75026;49.184;16.564;2024-03-23T13:45:09;13.80;;;5.50;;
84794;SDS011;75026;49.184;16.564;2024-03-23T13:50:12;14.95;;;5.40;;
84794;SDS011;75026;49.184;16.564;2024-03-23T13:55:13;10.70;;;5.78;;
84794;SDS011;75026;49.184;16.564;2024-03-23T14:00:16;10.82;;;5.47;;
84794;SDS011;75026;49.184;16.564;2024-03-23T14:05:18;11.40;;;5.28;;
84794;SDS011;75026;49.184;16.564;2024-03-23T14:10:19;11.90;;;5.22;;
84794;SDS011;75026;49.184;16.564;2024-03-23T14:15:20;14.50;;;5.53;;
84794;SDS011;75026;49.184;16.564;2024-03-23T14:20:21;9.65;;;4.85;;
84794;SDS011;75026;49.184;16.564;2024-03-23T14:25:22;11.45;;;4.93;;
84794;SDS011;75026;49.184;16.564;2024-03-23T14:30:27;11.80;;;4.85;;
84794;SDS011;75026;49.184;16.564;2024-03-23T14:35:28;8.30;;;4.30;;
84794;SDS011;75026;49.184;16.564;2024-03-23T14:40:29;9.70;;;4.07;;
84794;SDS011;75026;49.184;16.564;2024-03-23T14:45:30;6.43;;;3.60;;
84794;SDS011;75026;49.184;16.564;2024-03-23T14:50:31;8.02;;;3.20;;
84794;SDS011;75026;49.184;16.564;2024-03-23T14:55:32;6.50;;;3.63;;
84794;SDS011;75026;49.184;16.564;2024-03-23T15:00:35;7.32;;;3.28;;
84794;SDS011;75026;49.184;16.564;2024-03-23T15:05:35;7.38;;;3.00;;
84794;SDS011;75026;49.184;16.564;2024-03-23T15:10:37;7.32;;;3.00;;
84794;SDS011;75026;49.184;16.564;2024-03-23T15:15:39;4.75;;;2.65;;
84794;SDS011;75026;49.184;16.564;2024-03-23T15:20:42;8.40;;;2.55;;
84794;SDS011;75026;49.184;16.564;2024-03-23T15:30:58;10.00;;;2.92;;
84794;SDS011;75026;49.184;16.564;2024-03-23T15:35:59;6.68;;;2.55;;
84794;SDS011;75026;49.184;16.564;2024-03-23T15:41:01;8.63;;;2.60;;
84794;SDS011;75026;49.184;16.564;2024-03-23T15:46:03;8.40;;;2.50;;
84794;SDS011;75026;49.184;16.564;2024-03-23T15:51:05;7.00;;;2.53;;
84794;SDS011;75026;49.184;16.564;2024-03-23T15:56:05;6.63;;;2.40;;
84794;SDS011;75026;49.184;16.564;2024-03-23T16:01:07;5.93;;;2.65;;
84794;SDS011;75026;49.184;16.564;2024-03-23T16:06:11;3.83;;;2.42;;
84794;SDS011;75026;49.184;16.564;2024-03-23T16:11:12;9.07;;;3.03;;
84794;SDS011;75026;49.184;16.564;2024-03-23T16:16:13;3.70;;;2.30;;
84794;SDS011;75026;49.184;16.564;2024-03-23T16:21:14;4.20;;;2.13;;
84794;SDS011;75026;49.184;16.564;2024-03-23T16:26:15;6.60;;;2.30;;
84794;SDS011;75026;49.184;16.564;2024-03-23T16:31:17;5.95;;;2.20;;
84794;SDS011;75026;49.184;16.564;2024-03-23T16:36:18;5.93;;;2.33;;
84794;SDS011;75026;49.184;16.564;2024-03-23T16:41:19;10.90;;;2.45;;
84794;SDS011;75026;49.184;16.564;2024-03-23T16:46:20;4.05;;;2.20;;
84794;SDS011;75026;49.184;16.564;2024-03-23T16:51:21;4.50;;;2.15;;
84794;SDS011;75026;49.184;16.564;2024-03-23T16:56:22;6.05;;;2.03;;
84794;SDS011;75026;49.184;16.564;2024-03-23T17:01:23;4.80;;;2.10;;
84794;SDS011;75026;49.184;16.564;2024-03-23T17:06:24;5.72;;;2.30;;
84794;SDS011;75026;49.184;16.564;2024-03-23T17:11:26;3.78;;;2.00;;
84794;SDS011;75026;49.184;16.564;2024-03-23T17:16:27;7.10;;;3.00;;
84794;SDS011;75026;49.184;16.564;2024-03-23T17:21:30;9.82;;;3.92;;
84794;SDS011;75026;49.184;16.564;2024-03-23T17:26:31;14.90;;;4.70;;
84794;SDS011;75026;49.184;16.564;2024-03-23T17:31:33;14.23;;;5.18;;
84794;SDS011;75026;49.184;16.564;2024-03-23T17:36:34;9.73;;;4.80;;
84794;SDS011;75026;49.184;16.564;2024-03-23T17:41:35;11.05;;;5.72;;
84794;SDS011;75026;49.184;16.564;2024-03-23T17:46:37;12.73;;;5.50;;
84794;SDS011;75026;49.184;16.564;2024-03-23T17:51:38;10.32;;;5.13;;
84794;SDS011;75026;49.184;16.564;2024-03-23T17:56:39;11.20;;;4.85;;
84794;SDS011;75026;49.184;16.564;2024-03-23T18:01:40;7.13;;;4.50;;
84794;SDS011;75026;49.184;16.564;2024-03-23T18:06:41;9.05;;;4.63;;
84794;SDS011;75026;49.184;16.564;2024-03-23T18:11:41;9.60;;;4.30;;
84794;SDS011;75026;49.184;16.564;2024-03-23T18:16:42;10.50;;;4.25;;
84794;SDS011;75026;49.184;16.564;2024-03-23T18:21:44;7.63;;;3.65;;
84794;SDS011;75026;49.184;16.564;2024-03-23T18:26:45;7.63;;;3.67;;
84794;SDS011;75026;49.184;16.564;2024-03-23T18:31:47;6.95;;;3.95;;
84794;SDS011;75026;49.184;16.564;2024-03-23T18:36:47;9.45;;;4.03;;
84794;SDS011;75026;49.184;16.564;2024-03-23T18:41:48;7.13;;;3.83;;
84794;SDS011;75026;49.184;16.564;2024-03-23T18:46:49;7.13;;;3.90;;
84794;SDS011;75026;49.184;16.564;2024-03-23T18:51:50;7.95;;;3.33;;
84794;SDS011;75026;49.184;16.564;2024-03-23T18:56:51;10.98;;;4.45;;
84794;SDS011;75026;49.184;16.564;2024-03-23T19:01:52;9.00;;;3.30;;
84794;SDS011;75026;49.184;16.564;2024-03-23T19:06:53;6.07;;;3.17;;
84794;SDS011;75026;49.184;16.564;2024-03-23T19:11:54;7.03;;;3.35;;
84794;SDS011;75026;49.184;16.564;2024-03-23T19:16:55;7.00;;;3.30;;
84794;SDS011;75026;49.184;16.564;2024-03-23T19:21:55;5.45;;;3.40;;
84794;SDS011;75026;49.184;16.564;2024-03-23T19:26:57;6.85;;;3.45;;
84794;SDS011;75026;49.184;16.564;2024-03-23T19:31:57;8.25;;;3.63;;
84794;SDS011;75026;49.184;16.564;2024-03-23T19:36:58;4.82;;;2.75;;
84794;SDS011;75026;49.184;16.564;2024-03-23T19:41:59;6.10;;;3.33;;
84794;SDS011;75026;49.184;16.564;2024-03-23T19:47:00;7.70;;;3.20;;
84794;SDS011;75026;49.184;16.564;2024-03-23T19:52:02;15.27;;;3.25;;
84794;SDS011;75026;49.184;16.564;2024-03-23T19:57:04;7.78;;;3.00;;
84794;SDS011;75026;49.184;16.564;2024-03-23T20:02:05;6.85;;;3.00;;
84794;SDS011;75026;49.184;16.564;2024-03-23T20:07:06;5.60;;;2.72;;
84794;SDS011;75026;49.184;16.564;2024-03-23T20:12:06;5.43;;;2.90;;
84794;SDS011;75026;49.184;16.564;2024-03-23T20:17:08;4.35;;;2.53;;
84794;SDS011;75026;49.184;16.564;2024-03-23T20:22:09;4.15;;;2.55;;
84794;SDS011;75026;49.184;16.564;2024-03-23T20:27:10;5.03;;;2.88;;
84794;SDS011;75026;49.184;16.564;2024-03-23T20:32:11;4.97;;;2.47;;
84794;SDS011;75026;49.184;16.564;2024-03-23T20:37:11;6.43;;;2.60;;
84794;SDS011;75026;49.184;16.564;2024-03-23T20:42:12;5.63;;;2.75;;
84794;SDS011;75026;49.184;16.564;2024-03-23T20:47:13;4.70;;;2.30;;
84794;SDS011;75026;49.184;16.564;2024-03-23T20:52:14;3.63;;;2.40;;
84794;SDS011;75026;49.184;16.564;2024-03-23T20:57:15;3.33;;;2.42;;
84794;SDS011;75026;49.184;16.564;2024-03-23T21:02:16;4.95;;;2.42;;
84794;SDS011;75026;49.184;16.564;2024-03-23T21:07:17;5.55;;;2.33;;
84794;SDS011;75026;49.184;16.564;2024-03-23T21:12:18;8.77;;;3.13;;
84794;SDS011;75026;49.184;16.564;2024-03-23T21:17:19;8.95;;;2.40;;
84794;SDS011;75026;49.184;16.564;2024-03-23T21:22:20;9.07;;;2.30;;
84794;SDS011;75026;49.184;16.564;2024-03-23T21:27:22;6.78;;;2.30;;
84794;SDS011;75026;49.184;16.564;2024-03-23T21:32:24;7.35;;;2.40;;
84794;SDS011;75026;49.184;16.564;2024-03-23T21:37:26;4.55;;;2.38;;
84794;SDS011;75026;49.184;16.564;2024-03-23T21:42:29;4.72;;;1.85;;
84794;SDS011;75026;49.184;16.564;2024-03-23T21:47:30;5.00;;;2.47;;
84794;SDS011;75026;49.184;16.564;2024-03-23T21:52:31;6.07;;;2.58;;
84794;SDS011;75026;49.184;16.564;2024-03-23T21:57:32;9.32;;;2.83;;
84794;SDS011;75026;49.184;16.564;2024-03-23T22:02:33;4.95;;;2.58;;
84794;SDS011;75026;49.184;16.564;2024-03-23T22:07:34;4.40;;;2.60;;
84794;SDS011;75026;49.184;16.564;2024-03-23T22:12:34;5.50;;;2.60;;
84794;SDS011;75026;49.184;16.564;2024-03-23T22:17:35;6.35;;;3.47;;
84794;SDS011;75026;49.184;16.564;2024-03-23T22:22:36;3.95;;;2.83;;
84794;SDS011;75026;49.184;16.564;2024-03-23T22:27:37;7.25;;;3.55;;
84794;SDS011;75026;49.184;16.564;2024-03-23T22:32:38;6.97;;;3.72;;
84794;SDS011;75026;49.184;16.564;2024-03-23T22:37:42;7.35;;;3.85;;
84794;SDS011;75026;49.184;16.564;2024-03-23T22:42:43;9.10;;;3.15;;
84794;SDS011;75026;49.184;16.564;2024-03-23T22:47:44;5.60;;;3.08;;
84794;SDS011;75026;49.184;16.564;2024-03-23T22:52:45;9.43;;;2.92;;
84794;SDS011;75026;49.184;16.564;2024-03-23T22:57:46;11.77;;;2.92;;
84794;SDS011;75026;49.184;16.564;2024-03-23T23:02:47;8.63;;;3.17;;
84794;SDS011;75026;49.184;16.564;2024-03-23T23:07:48;5.13;;;2.50;;
84794;SDS011;75026;49.184;16.564;2024-03-23T23:12:49;5.22;;;2.72;;
84794;SDS011;75026;49.184;16.564;2024-03-23T23:17:51;4.60;;;2.80;;
84794;SDS011;75026;49.184;16.564;2024-03-23T23:22:53;7.13;;;2.60;;
84794;SDS011;75026;49.184;16.564;2024-03-23T23:27:55;3.72;;;2.20;;
84794;SDS011;75026;49.184;16.564;2024-03-23T23:32:56;8.48;;;2.60;;
84794;SDS011;75026;49.184;16.564;2024-03-23T23:37:58;4.30;;;2.70;;
84794;SDS011;75026;49.184;16.564;2024-03-23T23:42:58;5.20;;;2.45;;
84794;SDS011;75026;49.184;16.564;2024-03-23T23:47:59;7.32;;;2.45;;
84794;SDS011;75026;49.184;16.564;2024-03-23T23:53:00;6.05;;;2.28;;
